sensor_id;sensor_type;location;lat;lon;timestamp;pressure;altitude;pressure_sealevel;temperature;humidity
6942;BME280;3510;43.200;27.920;2023-01-29T00:00:45;101223.59;;;9.13;43.58
6942;BME280;3510;43.200;27.920;2023-01-29T00:03:12;101253.88;;;9.06;44.06
6942;BME280;3510;43.200;27.920;2023-01-29T00:05:53;101247.94;;;8.79;44.64
6942;BME280;3510;43.200;27.920;2023-01-29T00:08:34;101220.19;;;9.30;42.94
6942;BME280;3510;43.200;27.920;2023-01-29T00:11:01;101237.16;;;9.41;43.27
6942;BME280;3510;43.200;27.920;2023-01-29T00:23:01;101197.66;;;7.94;44.86
6942;BME280;3510;43.200;27.920;2023-01-29T00:25:58;101236.09;;;8.28;44.65
6942;BME280;3510;43.200;27.920;2023-01-29T00:28:25;101245.28;;;9.04;43.57
6942;BME280;3510;43.200;27.920;2023-01-29T00:31:07;101258.72;;;9.04;43.15
6942;BME280;3510;43.200;27.920;2023-01-29T00:33:49;101247.28;;;8.56;43.99
6942;BME280;3510;43.200;27.920;2023-01-29T00:36:20;101236.97;;;8.61;43.92
6942;BME280;3510;43.200;27.920;2023-01-29T00:38:53;101267.81;;;8.27;44.58
6942;BME280;3510;43.200;27.920;2023-01-29T00:41:35;101179.66;;;7.16;46.05
6942;BME280;3510;43.200;27.920;2023-01-29T00:44:19;101260.78;;;9.00;43.34
6942;BME280;3510;43.200;27.920;2023-01-29T00:47:04;101257.50;;;8.75;43.57
6942;BME280;3510;43.200;27.920;2023-01-29T00:49:52;101217.69;;;8.36;42.91
6942;BME280;3510;43.200;27.920;2023-01-29T00:52:19;101267.50;;;7.91;44.56
6942;BME280;3510;43.200;27.920;2023-01-29T00:58:01;101239.59;;;8.45;43.33
6942;BME280;3510;43.200;27.920;2023-01-29T01:00:42;101201.72;;;8.18;44.02
6942;BME280;3510;43.200;27.920;2023-01-29T01:03:09;101258.88;;;9.06;42.31
6942;BME280;3510;43.200;27.920;2023-01-29T01:05:35;101252.66;;;9.72;41.21
6942;BME280;3510;43.200;27.920;2023-01-29T01:08:03;101243.97;;;8.90;42.07
6942;BME280;3510;43.200;27.920;2023-01-29T01:10:58;101235.34;;;8.62;42.82
6942;BME280;3510;43.200;27.920;2023-01-29T01:16:52;101254.78;;;9.24;42.03
6942;BME280;3510;43.200;27.920;2023-01-29T01:19:33;101213.97;;;9.00;41.34
6942;BME280;3510;43.200;27.920;2023-01-29T01:22:00;101260.38;;;9.12;42.15
6942;BME280;3510;43.200;27.920;2023-01-29T01:24:29;101240.13;;;9.19;42.01
6942;BME280;3510;43.200;27.920;2023-01-29T01:26:56;101270.56;;;9.40;41.66
6942;BME280;3510;43.200;27.920;2023-01-29T01:29:23;101219.78;;;7.73;44.25
6942;BME280;3510;43.200;27.920;2023-01-29T01:31:53;101255.50;;;9.05;42.10
6942;BME280;3510;43.200;27.920;2023-01-29T01:34:20;101186.38;;;8.74;41.68
6942;BME280;3510;43.200;27.920;2023-01-29T01:36:48;101270.13;;;9.44;41.78
6942;BME280;3510;43.200;27.920;2023-01-29T01:39:15;101284.91;;;9.50;41.36
6942;BME280;3510;43.200;27.920;2023-01-29T01:41:42;101266.13;;;9.11;41.66
6942;BME280;3510;43.200;27.920;2023-01-29T01:47:13;101292.75;;;8.67;42.47
6942;BME280;3510;43.200;27.920;2023-01-29T01:49:42;101267.63;;;9.35;41.63
6942;BME280;3510;43.200;27.920;2023-01-29T01:52:10;101283.75;;;10.00;40.64
6942;BME280;3510;43.200;27.920;2023-01-29T01:54:39;101290.28;;;8.76;43.22
6942;BME280;3510;43.200;27.920;2023-01-29T01:57:10;101308.50;;;9.00;43.50
6942;BME280;3510;43.200;27.920;2023-01-29T01:59:42;101288.41;;;8.49;43.65
6942;BME280;3510;43.200;27.920;2023-01-29T02:02:14;101251.28;;;9.84;41.21
6942;BME280;3510;43.200;27.920;2023-01-29T02:04:59;101270.72;;;8.56;41.84
6942;BME280;3510;43.200;27.920;2023-01-29T02:07:45;101283.69;;;9.63;41.59
6942;BME280;3510;43.200;27.920;2023-01-29T02:10:36;101271.41;;;9.49;40.51
6942;BME280;3510;43.200;27.920;2023-01-29T02:13:05;101286.38;;;9.48;41.45
6942;BME280;3510;43.200;27.920;2023-01-29T02:15:33;101302.84;;;8.93;42.52
6942;BME280;3510;43.200;27.920;2023-01-29T02:18:02;101295.81;;;9.50;41.29
6942;BME280;3510;43.200;27.920;2023-01-29T02:20:31;101269.94;;;8.40;43.54
6942;BME280;3510;43.200;27.920;2023-01-29T02:23:23;101306.72;;;7.74;43.94
6942;BME280;3510;43.200;27.920;2023-01-29T02:26:13;101290.72;;;8.81;42.40
6942;BME280;3510;43.200;27.920;2023-01-29T02:28:44;101302.75;;;9.44;41.22
6942;BME280;3510;43.200;27.920;2023-01-29T02:31:23;101288.59;;;8.51;42.88
6942;BME280;3510;43.200;27.920;2023-01-29T02:34:00;101294.59;;;7.70;44.49
6942;BME280;3510;43.200;27.920;2023-01-29T02:36:35;101292.75;;;8.34;44.25
6942;BME280;3510;43.200;27.920;2023-01-29T02:39:11;101227.97;;;8.21;43.48
6942;BME280;3510;43.200;27.920;2023-01-29T02:41:44;101268.47;;;8.09;44.41
6942;BME280;3510;43.200;27.920;2023-01-29T02:44:19;101280.31;;;8.52;43.94
6942;BME280;3510;43.200;27.920;2023-01-29T02:46:55;101286.56;;;10.03;41.07
6942;BME280;3510;43.200;27.920;2023-01-29T02:49:29;101241.63;;;8.41;42.70
6942;BME280;3510;43.200;27.920;2023-01-29T02:52:01;101298.94;;;8.29;44.32
6942;BME280;3510;43.200;27.920;2023-01-29T02:54:36;101275.72;;;9.59;41.43
6942;BME280;3510;43.200;27.920;2023-01-29T02:57:13;101290.06;;;9.25;41.43
6942;BME280;3510;43.200;27.920;2023-01-29T02:59:47;101258.44;;;9.36;40.72
6942;BME280;3510;43.200;27.920;2023-01-29T03:02:19;101301.84;;;9.78;40.09
6942;BME280;3510;43.200;27.920;2023-01-29T03:04:51;101320.03;;;7.82;42.22
6942;BME280;3510;43.200;27.920;2023-01-29T03:07:24;101305.81;;;7.34;43.68
6942;BME280;3510;43.200;27.920;2023-01-29T03:10:11;101274.28;;;7.51;43.79
6942;BME280;3510;43.200;27.920;2023-01-29T03:12:40;101302.09;;;7.86;43.93
6942;BME280;3510;43.200;27.920;2023-01-29T03:15:14;101297.13;;;9.12;40.67
6942;BME280;3510;43.200;27.920;2023-01-29T03:17:46;101294.22;;;7.59;44.15
6942;BME280;3510;43.200;27.920;2023-01-29T03:20:20;101189.78;;;6.61;44.86
6942;BME280;3510;43.200;27.920;2023-01-29T03:22:54;101292.88;;;7.94;43.41
6942;BME280;3510;43.200;27.920;2023-01-29T03:25:23;101285.88;;;7.67;43.58
6942;BME280;3510;43.200;27.920;2023-01-29T03:28:11;101277.94;;;7.87;44.14
6942;BME280;3510;43.200;27.920;2023-01-29T03:31:00;101290.47;;;7.15;44.82
6942;BME280;3510;43.200;27.920;2023-01-29T03:33:49;101242.16;;;7.47;43.98
6942;BME280;3510;43.200;27.920;2023-01-29T03:36:20;101274.84;;;7.65;43.11
6942;BME280;3510;43.200;27.920;2023-01-29T03:38:51;101283.91;;;7.56;43.81
6942;BME280;3510;43.200;27.920;2023-01-29T03:41:24;101349.31;;;6.57;44.98
6942;BME280;3510;43.200;27.920;2023-01-29T03:44:01;101249.31;;;6.88;44.57
6942;BME280;3510;43.200;27.920;2023-01-29T03:46:36;101330.16;;;7.35;44.50
6942;BME280;3510;43.200;27.920;2023-01-29T03:49:10;101292.00;;;6.74;45.95
6942;BME280;3510;43.200;27.920;2023-01-29T03:51:45;101250.13;;;6.80;45.73
6942;BME280;3510;43.200;27.920;2023-01-29T03:54:33;101232.97;;;6.28;46.32
6942;BME280;3510;43.200;27.920;2023-01-29T03:57:12;101320.03;;;7.26;45.55
6942;BME280;3510;43.200;27.920;2023-01-29T03:59:47;101304.53;;;7.21;44.92
6942;BME280;3510;43.200;27.920;2023-01-29T04:02:19;101264.66;;;6.75;45.58
6942;BME280;3510;43.200;27.920;2023-01-29T04:04:54;101217.34;;;7.17;44.58
6942;BME280;3510;43.200;27.920;2023-01-29T04:07:24;101274.34;;;6.88;45.33
6942;BME280;3510;43.200;27.920;2023-01-29T04:10:08;101320.34;;;7.85;43.50
6942;BME280;3510;43.200;27.920;2023-01-29T04:12:40;101275.34;;;8.03;44.12
6942;BME280;3510;43.200;27.920;2023-01-29T04:15:12;101274.66;;;7.23;44.88
6942;BME280;3510;43.200;27.920;2023-01-29T04:17:55;101360.75;;;7.88;44.54
6942;BME280;3510;43.200;27.920;2023-01-29T04:20:36;101325.41;;;8.76;42.58
6942;BME280;3510;43.200;27.920;2023-01-29T04:23:20;101341.25;;;8.92;41.83
6942;BME280;3510;43.200;27.920;2023-01-29T04:25:53;101319.00;;;8.62;41.30
6942;BME280;3510;43.200;27.920;2023-01-29T04:28:27;101256.63;;;7.74;43.53
6942;BME280;3510;43.200;27.920;2023-01-29T04:31:05;101333.97;;;7.71;44.57
6942;BME280;3510;43.200;27.920;2023-01-29T04:33:43;101356.66;;;8.71;42.62
6942;BME280;3510;43.200;27.920;2023-01-29T04:36:27;101375.78;;;8.86;42.88
6942;BME280;3510;43.200;27.920;2023-01-29T04:39:03;101389.50;;;10.10;40.71
6942;BME280;3510;43.200;27.920;2023-01-29T04:41:35;101357.69;;;10.28;39.96
6942;BME280;3510;43.200;27.920;2023-01-29T04:44:09;101313.25;;;9.83;40.16
6942;BME280;3510;43.200;27.920;2023-01-29T04:46:45;101299.81;;;8.54;42.23
6942;BME280;3510;43.200;27.920;2023-01-29T04:49:26;101369.41;;;9.75;41.19
6942;BME280;3510;43.200;27.920;2023-01-29T04:52:01;101311.19;;;9.62;41.23
6942;BME280;3510;43.200;27.920;2023-01-29T04:54:41;101341.94;;;9.68;40.91
6942;BME280;3510;43.200;27.920;2023-01-29T04:57:16;101342.19;;;9.19;42.53
6942;BME280;3510;43.200;27.920;2023-01-29T04:59:56;101378.38;;;9.21;42.35
6942;BME280;3510;43.200;27.920;2023-01-29T05:02:26;101380.03;;;9.64;41.99
6942;BME280;3510;43.200;27.920;2023-01-29T05:04:56;101370.41;;;8.75;43.59
6942;BME280;3510;43.200;27.920;2023-01-29T05:07:25;101349.91;;;8.21;44.01
6942;BME280;3510;43.200;27.920;2023-01-29T05:09:55;101353.97;;;8.12;44.27
6942;BME280;3510;43.200;27.920;2023-01-29T05:12:24;101380.84;;;9.04;42.52
6942;BME280;3510;43.200;27.920;2023-01-29T05:14:52;101380.31;;;8.73;43.02
6942;BME280;3510;43.200;27.920;2023-01-29T05:17:27;101365.38;;;8.66;43.92
6942;BME280;3510;43.200;27.920;2023-01-29T05:19:56;101344.50;;;9.00;43.09
6942;BME280;3510;43.200;27.920;2023-01-29T05:22:23;101359.03;;;8.69;43.67
6942;BME280;3510;43.200;27.920;2023-01-29T05:24:51;101321.84;;;8.74;42.83
6942;BME280;3510;43.200;27.920;2023-01-29T05:27:21;101361.69;;;10.08;40.78
6942;BME280;3510;43.200;27.920;2023-01-29T05:30:08;101389.06;;;8.85;43.04
6942;BME280;3510;43.200;27.920;2023-01-29T05:32:36;101386.47;;;9.10;42.67
6942;BME280;3510;43.200;27.920;2023-01-29T05:35:06;101393.34;;;10.32;40.70
6942;BME280;3510;43.200;27.920;2023-01-29T05:37:33;101350.78;;;9.47;42.00
6942;BME280;3510;43.200;27.920;2023-01-29T05:40:00;101415.44;;;8.48;43.97
6942;BME280;3510;43.200;27.920;2023-01-29T05:42:27;101407.69;;;9.47;41.59
6942;BME280;3510;43.200;27.920;2023-01-29T05:45:41;101403.44;;;9.72;42.21
6942;BME280;3510;43.200;27.920;2023-01-29T05:48:13;101406.53;;;9.95;41.04
6942;BME280;3510;43.200;27.920;2023-01-29T05:50:40;101373.44;;;9.64;41.46
6942;BME280;3510;43.200;27.920;2023-01-29T05:53:08;101410.78;;;9.35;42.24
6942;BME280;3510;43.200;27.920;2023-01-29T05:55:35;101400.69;;;9.18;43.02
6942;BME280;3510;43.200;27.920;2023-01-29T05:58:02;101356.31;;;8.51;42.91
6942;BME280;3510;43.200;27.920;2023-01-29T06:00:44;101390.31;;;7.99;44.54
6942;BME280;3510;43.200;27.920;2023-01-29T06:03:25;101388.41;;;8.21;44.49
6942;BME280;3510;43.200;27.920;2023-01-29T06:05:52;101425.25;;;8.87;43.45
6942;BME280;3510;43.200;27.920;2023-01-29T06:08:19;101388.81;;;9.00;42.03
6942;BME280;3510;43.200;27.920;2023-01-29T06:10:46;101435.41;;;8.80;43.38
6942;BME280;3510;43.200;27.920;2023-01-29T06:13:13;101407.16;;;7.21;46.29
6942;BME280;3510;43.200;27.920;2023-01-29T06:15:41;101378.44;;;8.55;43.75
6942;BME280;3510;43.200;27.920;2023-01-29T06:18:09;101432.78;;;7.66;46.00
6942;BME280;3510;43.200;27.920;2023-01-29T06:20:50;101438.03;;;7.92;45.84
6942;BME280;3510;43.200;27.920;2023-01-29T06:23:17;101385.75;;;7.64;45.68
6942;BME280;3510;43.200;27.920;2023-01-29T06:25:44;101398.16;;;8.43;43.92
6942;BME280;3510;43.200;27.920;2023-01-29T06:28:12;101431.22;;;8.72;43.73
6942;BME280;3510;43.200;27.920;2023-01-29T06:30:39;101406.34;;;7.77;45.13
6942;BME280;3510;43.200;27.920;2023-01-29T06:33:06;101432.38;;;7.70;46.59
6942;BME280;3510;43.200;27.920;2023-01-29T06:35:35;101461.25;;;8.23;45.59
6942;BME280;3510;43.200;27.920;2023-01-29T06:38:03;101402.41;;;7.79;45.99
6942;BME280;3510;43.200;27.920;2023-01-29T06:40:30;101444.19;;;7.87;46.50
6942;BME280;3510;43.200;27.920;2023-01-29T06:42:59;101460.81;;;7.55;46.55
6942;BME280;3510;43.200;27.920;2023-01-29T06:45:26;101444.44;;;8.38;45.20
6942;BME280;3510;43.200;27.920;2023-01-29T06:47:55;101425.66;;;8.83;44.21
6942;BME280;3510;43.200;27.920;2023-01-29T06:50:22;101458.63;;;9.28;43.35
6942;BME280;3510;43.200;27.920;2023-01-29T06:52:50;101444.72;;;8.57;44.73
6942;BME280;3510;43.200;27.920;2023-01-29T06:55:17;101467.75;;;7.42;46.76
6942;BME280;3510;43.200;27.920;2023-01-29T06:57:45;101449.53;;;8.31;44.12
6942;BME280;3510;43.200;27.920;2023-01-29T07:00:13;101450.44;;;8.80;44.02
6942;BME280;3510;43.200;27.920;2023-01-29T07:02:42;101455.28;;;8.45;44.33
6942;BME280;3510;43.200;27.920;2023-01-29T07:05:09;101485.78;;;8.10;45.35
6942;BME280;3510;43.200;27.920;2023-01-29T07:07:36;101479.81;;;8.16;44.46
6942;BME280;3510;43.200;27.920;2023-01-29T07:10:06;101492.06;;;8.54;43.47
6942;BME280;3510;43.200;27.920;2023-01-29T07:12:33;101495.41;;;8.45;44.10
6942;BME280;3510;43.200;27.920;2023-01-29T07:15:00;101492.66;;;9.42;42.00
6942;BME280;3510;43.200;27.920;2023-01-29T07:17:27;101478.59;;;9.02;42.76
6942;BME280;3510;43.200;27.920;2023-01-29T07:19:54;101501.97;;;9.43;41.54
6942;BME280;3510;43.200;27.920;2023-01-29T07:22:21;101482.56;;;10.10;40.08
6942;BME280;3510;43.200;27.920;2023-01-29T07:24:51;101460.13;;;9.43;41.28
6942;BME280;3510;43.200;27.920;2023-01-29T07:27:20;101446.31;;;8.56;42.67
6942;BME280;3510;43.200;27.920;2023-01-29T07:29:47;101481.41;;;7.14;45.52
6942;BME280;3510;43.200;27.920;2023-01-29T07:32:14;101480.66;;;8.48;43.33
6942;BME280;3510;43.200;27.920;2023-01-29T07:34:41;101391.91;;;8.64;42.08
6942;BME280;3510;43.200;27.920;2023-01-29T07:37:08;101451.44;;;9.07;42.04
6942;BME280;3510;43.200;27.920;2023-01-29T07:39:35;101500.66;;;9.13;41.87
6942;BME280;3510;43.200;27.920;2023-01-29T07:42:02;101454.88;;;10.10;39.56
6942;BME280;3510;43.200;27.920;2023-01-29T07:44:32;101508.38;;;9.74;40.83
6942;BME280;3510;43.200;27.920;2023-01-29T07:46:59;101478.97;;;9.23;41.61
6942;BME280;3510;43.200;27.920;2023-01-29T07:49:26;101498.81;;;9.28;41.24
6942;BME280;3510;43.200;27.920;2023-01-29T07:51:53;101524.13;;;9.47;40.77
6942;BME280;3510;43.200;27.920;2023-01-29T07:54:20;101486.38;;;9.21;41.48
6942;BME280;3510;43.200;27.920;2023-01-29T07:56:48;101525.19;;;9.58;41.36
6942;BME280;3510;43.200;27.920;2023-01-29T07:59:15;101527.97;;;8.61;42.18
6942;BME280;3510;43.200;27.920;2023-01-29T08:01:44;101495.53;;;9.20;41.85
6942;BME280;3510;43.200;27.920;2023-01-29T08:04:11;101523.72;;;8.93;41.62
6942;BME280;3510;43.200;27.920;2023-01-29T08:06:39;101468.94;;;8.40;42.44
6942;BME280;3510;43.200;27.920;2023-01-29T08:09:06;101468.97;;;7.93;42.96
6942;BME280;3510;43.200;27.920;2023-01-29T08:11:33;101529.50;;;9.67;41.31
6942;BME280;3510;43.200;27.920;2023-01-29T08:14:00;101487.88;;;8.94;41.41
6942;BME280;3510;43.200;27.920;2023-01-29T08:16:27;101480.38;;;7.82;43.87
6942;BME280;3510;43.200;27.920;2023-01-29T08:18:56;101525.94;;;8.66;41.90
6942;BME280;3510;43.200;27.920;2023-01-29T08:21:23;101548.22;;;8.31;43.32
6942;BME280;3510;43.200;27.920;2023-01-29T08:23:51;101546.97;;;8.75;42.12
6942;BME280;3510;43.200;27.920;2023-01-29T08:26:18;101544.75;;;8.54;43.37
6942;BME280;3510;43.200;27.920;2023-01-29T08:28:45;101545.47;;;7.50;45.88
6942;BME280;3510;43.200;27.920;2023-01-29T08:31:13;101485.50;;;7.91;44.31
6942;BME280;3510;43.200;27.920;2023-01-29T08:33:40;101533.72;;;8.29;43.93
6942;BME280;3510;43.200;27.920;2023-01-29T08:36:09;101499.78;;;8.39;43.83
6942;BME280;3510;43.200;27.920;2023-01-29T08:38:37;101548.19;;;7.68;45.61
6942;BME280;3510;43.200;27.920;2023-01-29T08:41:04;101550.84;;;7.31;47.04
6942;BME280;3510;43.200;27.920;2023-01-29T08:43:32;101538.09;;;8.07;45.37
6942;BME280;3510;43.200;27.920;2023-01-29T08:45:59;101517.06;;;9.18;42.89
6942;BME280;3510;43.200;27.920;2023-01-29T08:48:27;101541.31;;;8.69;44.49
6942;BME280;3510;43.200;27.920;2023-01-29T08:50:56;101515.47;;;9.78;41.94
6942;BME280;3510;43.200;27.920;2023-01-29T08:53:25;101520.56;;;10.13;41.03
6942;BME280;3510;43.200;27.920;2023-01-29T08:55:52;101534.41;;;9.00;43.31
6942;BME280;3510;43.200;27.920;2023-01-29T08:58:20;101487.38;;;8.41;43.88
6942;BME280;3510;43.200;27.920;2023-01-29T09:00:48;101541.59;;;8.47;44.78
6942;BME280;3510;43.200;27.920;2023-01-29T09:03:15;101528.09;;;9.87;41.50
6942;BME280;3510;43.200;27.920;2023-01-29T09:05:42;101450.22;;;8.94;42.69
6942;BME280;3510;43.200;27.920;2023-01-29T09:08:11;101514.22;;;9.49;42.46
6942;BME280;3510;43.200;27.920;2023-01-29T09:10:39;101482.25;;;9.30;42.62
6942;BME280;3510;43.200;27.920;2023-01-29T09:13:07;101527.66;;;10.08;41.91
6942;BME280;3510;43.200;27.920;2023-01-29T09:15:34;101514.16;;;9.82;42.06
6942;BME280;3510;43.200;27.920;2023-01-29T09:18:02;101480.53;;;7.99;44.62
6942;BME280;3510;43.200;27.920;2023-01-29T09:20:29;101494.66;;;8.71;43.34
6942;BME280;3510;43.200;27.920;2023-01-29T09:22:57;101538.28;;;9.80;42.19
6942;BME280;3510;43.200;27.920;2023-01-29T09:25:26;101494.06;;;9.90;41.19
6942;BME280;3510;43.200;27.920;2023-01-29T09:27:55;101435.84;;;9.18;41.39
6942;BME280;3510;43.200;27.920;2023-01-29T09:30:22;101528.81;;;9.02;43.04
6942;BME280;3510;43.200;27.920;2023-01-29T09:32:49;101514.72;;;9.20;42.84
6942;BME280;3510;43.200;27.920;2023-01-29T09:35:18;101463.09;;;9.39;41.72
6942;BME280;3510;43.200;27.920;2023-01-29T09:37:52;101515.16;;;9.58;42.47
6942;BME280;3510;43.200;27.920;2023-01-29T09:40:23;101405.50;;;8.66;42.71
6942;BME280;3510;43.200;27.920;2023-01-29T09:43:01;101464.47;;;7.82;44.77
6942;BME280;3510;43.200;27.920;2023-01-29T09:45:30;101420.84;;;8.20;43.03
6942;BME280;3510;43.200;27.920;2023-01-29T09:47:59;101502.09;;;8.38;43.56
6942;BME280;3510;43.200;27.920;2023-01-29T09:50:30;101465.56;;;8.40;42.94
6942;BME280;3510;43.200;27.920;2023-01-29T09:53:02;101517.56;;;8.99;42.66
6942;BME280;3510;43.200;27.920;2023-01-29T09:55:32;101499.78;;;9.13;43.25
6942;BME280;3510;43.200;27.920;2023-01-29T09:58:10;101510.94;;;9.32;41.67
6942;BME280;3510;43.200;27.920;2023-01-29T10:00:45;101473.69;;;9.28;41.45
6942;BME280;3510;43.200;27.920;2023-01-29T10:03:27;101500.91;;;9.08;42.42
6942;BME280;3510;43.200;27.920;2023-01-29T10:06:08;101505.88;;;9.24;41.52
6942;BME280;3510;43.200;27.920;2023-01-29T10:09:01;101497.81;;;9.52;40.92
6942;BME280;3510;43.200;27.920;2023-01-29T10:11:38;101496.94;;;9.52;41.69
6942;BME280;3510;43.200;27.920;2023-01-29T10:14:15;101495.78;;;8.57;42.78
6942;BME280;3510;43.200;27.920;2023-01-29T10:16:57;101484.19;;;9.33;41.42
6942;BME280;3510;43.200;27.920;2023-01-29T10:22:59;101504.38;;;9.17;41.79
6942;BME280;3510;43.200;27.920;2023-01-29T10:25:32;101491.47;;;9.56;41.38
6942;BME280;3510;43.200;27.920;2023-01-29T10:28:04;101478.03;;;7.99;43.71
6942;BME280;3510;43.200;27.920;2023-01-29T10:30:47;101436.47;;;9.41;40.81
6942;BME280;3510;43.200;27.920;2023-01-29T10:33:22;101466.28;;;9.98;39.78
6942;BME280;3510;43.200;27.920;2023-01-29T10:35:54;101463.03;;;8.89;41.44
6942;BME280;3510;43.200;27.920;2023-01-29T10:38:30;101488.88;;;9.21;41.39
6942;BME280;3510;43.200;27.920;2023-01-29T10:41:11;101499.06;;;9.73;39.83
6942;BME280;3510;43.200;27.920;2023-01-29T10:43:50;101488.47;;;9.34;40.11
6942;BME280;3510;43.200;27.920;2023-01-29T10:46:27;101456.00;;;9.02;40.38
6942;BME280;3510;43.200;27.920;2023-01-29T10:49:07;101435.41;;;8.80;41.84
6942;BME280;3510;43.200;27.920;2023-01-29T10:51:55;101408.81;;;6.98;43.67
6942;BME280;3510;43.200;27.920;2023-01-29T10:54:37;101499.59;;;7.74;43.23
6942;BME280;3510;43.200;27.920;2023-01-29T10:57:12;101479.16;;;8.42;41.94
6942;BME280;3510;43.200;27.920;2023-01-29T10:59:53;101436.47;;;8.17;41.54
6942;BME280;3510;43.200;27.920;2023-01-29T11:02:26;101504.78;;;8.08;41.77
6942;BME280;3510;43.200;27.920;2023-01-29T11:04:53;101444.44;;;8.22;41.76
6942;BME280;3510;43.200;27.920;2023-01-29T11:07:21;101405.13;;;8.45;41.42
6942;BME280;3510;43.200;27.920;2023-01-29T11:09:54;101479.13;;;8.26;42.81
6942;BME280;3510;43.200;27.920;2023-01-29T11:12:25;101447.31;;;7.93;41.62
6942;BME280;3510;43.200;27.920;2023-01-29T11:14:59;101435.56;;;8.17;41.21
6942;BME280;3510;43.200;27.920;2023-01-29T11:17:35;101481.84;;;9.01;41.03
6942;BME280;3510;43.200;27.920;2023-01-29T11:20:10;101458.91;;;8.89;40.39
6942;BME280;3510;43.200;27.920;2023-01-29T11:22:53;101471.94;;;9.44;40.55
6942;BME280;3510;43.200;27.920;2023-01-29T11:25:25;101472.91;;;9.20;40.65
6942;BME280;3510;43.200;27.920;2023-01-29T11:27:56;101473.69;;;8.30;43.40
6942;BME280;3510;43.200;27.920;2023-01-29T11:30:26;101410.09;;;8.21;42.80
6942;BME280;3510;43.200;27.920;2023-01-29T11:33:08;101456.53;;;8.02;43.95
6942;BME280;3510;43.200;27.920;2023-01-29T11:35:36;101459.47;;;7.97;43.45
6942;BME280;3510;43.200;27.920;2023-01-29T11:38:14;101442.25;;;8.41;42.53
6942;BME280;3510;43.200;27.920;2023-01-29T11:40:44;101484.41;;;7.89;43.61
6942;BME280;3510;43.200;27.920;2023-01-29T11:43:26;101496.88;;;8.28;43.00
6942;BME280;3510;43.200;27.920;2023-01-29T11:45:55;101450.31;;;7.98;43.00
6942;BME280;3510;43.200;27.920;2023-01-29T11:48:33;101478.59;;;7.81;43.46
6942;BME280;3510;43.200;27.920;2023-01-29T11:51:06;101436.31;;;8.16;42.19
6942;BME280;3510;43.200;27.920;2023-01-29T11:53:37;101468.97;;;8.65;41.15
6942;BME280;3510;43.200;27.920;2023-01-29T11:56:17;101482.75;;;8.53;42.19
6942;BME280;3510;43.200;27.920;2023-01-29T11:58:45;101461.13;;;7.42;43.43
6942;BME280;3510;43.200;27.920;2023-01-29T12:01:17;101465.81;;;8.83;41.58
6942;BME280;3510;43.200;27.920;2023-01-29T12:03:51;101472.31;;;7.69;43.54
6942;BME280;3510;43.200;27.920;2023-01-29T12:06:22;101472.72;;;8.37;41.86
6942;BME280;3510;43.200;27.920;2023-01-29T12:08:54;101469.09;;;8.26;41.64
6942;BME280;3510;43.200;27.920;2023-01-29T12:11:28;101423.38;;;8.04;41.83
6942;BME280;3510;43.200;27.920;2023-01-29T12:13:57;101467.97;;;8.71;41.39
6942;BME280;3510;43.200;27.920;2023-01-29T12:16:28;101444.97;;;9.09;41.13
6942;BME280;3510;43.200;27.920;2023-01-29T12:19:04;101467.38;;;7.62;43.99
6942;BME280;3510;43.200;27.920;2023-01-29T12:21:38;101471.09;;;8.13;42.16
6942;BME280;3510;43.200;27.920;2023-01-29T12:24:15;101503.97;;;8.47;42.77
6942;BME280;3510;43.200;27.920;2023-01-29T12:26:49;101462.47;;;7.86;43.88
6942;BME280;3510;43.200;27.920;2023-01-29T12:29:26;101485.06;;;7.63;43.40
6942;BME280;3510;43.200;27.920;2023-01-29T12:32:05;101491.31;;;8.55;42.18
6942;BME280;3510;43.200;27.920;2023-01-29T12:34:44;101457.44;;;7.86;43.39
6942;BME280;3510;43.200;27.920;2023-01-29T12:37:20;101454.00;;;8.17;43.22
6942;BME280;3510;43.200;27.920;2023-01-29T12:40:04;101490.41;;;8.45;43.08
6942;BME280;3510;43.200;27.920;2023-01-29T12:42:38;101475.69;;;8.82;42.29
6942;BME280;3510;43.200;27.920;2023-01-29T12:45:08;101481.78;;;8.92;42.36
6942;BME280;3510;43.200;27.920;2023-01-29T12:47:44;101455.78;;;9.25;41.41
6942;BME280;3510;43.200;27.920;2023-01-29T13:12:32;101438.81;;;8.16;42.62
6942;BME280;3510;43.200;27.920;2023-01-29T13:15:03;101511.03;;;8.67;42.02
6942;BME280;3510;43.200;27.920;2023-01-29T13:17:35;101499.41;;;8.52;42.25
6942;BME280;3510;43.200;27.920;2023-01-29T13:20:11;101463.97;;;8.49;42.14
6942;BME280;3510;43.200;27.920;2023-01-29T13:22:39;101519.84;;;8.64;41.70
6942;BME280;3510;43.200;27.920;2023-01-29T13:25:14;101449.50;;;8.71;41.82
6942;BME280;3510;43.200;27.920;2023-01-29T13:31:12;101506.38;;;9.04;41.04
6942;BME280;3510;43.200;27.920;2023-01-29T13:33:41;101507.81;;;8.68;42.05
6942;BME280;3510;43.200;27.920;2023-01-29T13:36:14;101519.03;;;8.96;40.77
6942;BME280;3510;43.200;27.920;2023-01-29T13:38:43;101457.88;;;8.87;40.56
6942;BME280;3510;43.200;27.920;2023-01-29T13:41:10;101501.97;;;9.10;41.36
6942;BME280;3510;43.200;27.920;2023-01-29T13:43:40;101519.13;;;8.89;40.73
6942;BME280;3510;43.200;27.920;2023-01-29T13:46:12;101521.94;;;9.59;40.30
6942;BME280;3510;43.200;27.920;2023-01-29T13:48:54;101488.91;;;8.96;40.56
6942;BME280;3510;43.200;27.920;2023-01-29T13:51:32;101520.63;;;9.71;39.16
6942;BME280;3510;43.200;27.920;2023-01-29T13:54:03;101525.53;;;9.78;39.00
6942;BME280;3510;43.200;27.920;2023-01-29T13:56:56;101494.53;;;7.82;41.36
6942;BME280;3510;43.200;27.920;2023-01-29T13:59:47;101496.44;;;8.47;40.84
6942;BME280;3510;43.200;27.920;2023-01-29T14:02:21;101514.59;;;8.13;41.25
6942;BME280;3510;43.200;27.920;2023-01-29T14:05:37;101518.22;;;9.47;39.21
6942;BME280;3510;43.200;27.920;2023-01-29T14:08:08;101534.44;;;8.12;40.94
6942;BME280;3510;43.200;27.920;2023-01-29T14:17:06;101526.50;;;9.45;38.57
6942;BME280;3510;43.200;27.920;2023-01-29T14:29:05;101504.81;;;9.13;38.71
6942;BME280;3510;43.200;27.920;2023-01-29T14:31:40;101528.97;;;8.79;39.85
6942;BME280;3510;43.200;27.920;2023-01-29T14:34:25;101501.66;;;8.82;39.90
6942;BME280;3510;43.200;27.920;2023-01-29T14:37:19;101547.72;;;8.58;40.23
6942;BME280;3510;43.200;27.920;2023-01-29T14:40:14;101537.38;;;8.55;40.58
6942;BME280;3510;43.200;27.920;2023-01-29T14:42:54;101529.91;;;9.55;38.74
6942;BME280;3510;43.200;27.920;2023-01-29T14:45:26;101545.44;;;8.53;39.85